This is the latest recevied weather packets stored in our database for station/object HS3PIK-2. If no packets are shown the sender has not sent any weather packets the latest 1 day(s).
| Time | Temp. | Humidity | Pressure | Rain* | Wind** | Luminosity | Snow |
|---|---|---|---|---|---|---|---|
| 1778048969 | 28.33° C | 86% | - | - | 0 m/s | 0 W/m² | - |
| 1778048642 | 28.33° C | 86% | - | - | 0 m/s | 0 W/m² | - |
| 1778048317 | 28.33° C | 86% | - | - | 0 m/s | 0 W/m² | - |
| 1778047990 | 28.33° C | 86% | - | - | 0 m/s | 0 W/m² | - |
| 1778047665 | 28.33° C | 86% | - | - | 0 m/s | 0 W/m² | - |
| 1778047337 | 28.33° C | 86% | - | - | 0 m/s | 0 W/m² | - |
| 1778047007 | 28.33° C | 86% | - | - | 0 m/s | 0 W/m² | - |
| 1778046680 | 28.33° C | 86% | - | - | 0 m/s | 0 W/m² | - |
| 1778046350 | 28.89° C | 87% | - | - | 0 m/s | 0 W/m² | - |
| 1778046022 | 28.33° C | 86% | - | - | 0 m/s | 0 W/m² | - |
| 1778045692 | 27.78° C | 86% | - | - | 0 m/s | 0 W/m² | - |
| 1778045365 | 27.78° C | 85% | - | - | 0 m/s | 0 W/m² | - |
| 1778045035 | 27.22° C | 84% | - | - | 0 m/s | 0 W/m² | - |
| 1778044707 | 27.22° C | 83% | - | - | 0 m/s | 0 W/m² | - |
| 1778044375 | 27.78° C | 83% | - | - | 0 m/s | 0 W/m² | - |
| 1778044047 | 29.44° C | 78% | - | - | 0 m/s | 0 W/m² | - |
| 1778043720 | 31.11° C | 73% | - | - | 0 m/s | 0 W/m² | - |
| 1778043395 | 31.67° C | 70% | - | - | 0 m/s | 0 W/m² | - |
| 1778043065 | 32.78° C | 68% | - | - | 0 m/s | 0 W/m² | - |
| 1778042735 | 33.33° C | 67% | - | - | 0 m/s | 0 W/m² | - |
| 1778042405 | 33.89° C | 65% | - | - | 0 m/s | 0 W/m² | - |
| 1778042083 | 34.44° C | 62% | - | - | 0 m/s | 0 W/m² | - |
| 1778041755 | 35° C | 62% | - | - | 0 m/s | 0 W/m² | - |
| 1778041428 | 35° C | 63% | - | - | 0 m/s | 0 W/m² | - |
| 1778041098 | 34.44° C | 65% | - | - | 0 m/s | 0 W/m² | - |
* Rain since midnight (hover to see other rain measurements)
** Current wind speed in m/s (hover to see current wind gust speed)